sensor_id;sensor_type;location;lat;lon;timestamp;P1;durP1;ratioP1;P2;durP2;ratioP2
60372;SDS011;46216;52.220;5.134;2023-04-03T00:01:03;2.42;;;1.40;;
60372;SDS011;46216;52.220;5.134;2023-04-03T00:03:29;2.35;;;1.17;;
60372;SDS011;46216;52.220;5.134;2023-04-03T00:05:54;2.63;;;1.27;;
60372;SDS011;46216;52.220;5.134;2023-04-03T00:08:20;3.45;;;1.50;;
60372;SDS011;46216;52.220;5.134;2023-04-03T00:10:45;3.60;;;1.27;;
60372;SDS011;46216;52.220;5.134;2023-04-03T00:13:11;1.85;;;1.42;;
60372;SDS011;46216;52.220;5.134;2023-04-03T00:15:37;3.30;;;1.38;;
60372;SDS011;46216;52.220;5.134;2023-04-03T00:18:03;2.70;;;1.17;;
60372;SDS011;46216;52.220;5.134;2023-04-03T00:20:29;4.10;;;1.65;;
60372;SDS011;46216;52.220;5.134;2023-04-03T00:22:55;3.05;;;1.20;;
60372;SDS011;46216;52.220;5.134;2023-04-03T00:25:21;2.75;;;1.40;;
60372;SDS011;46216;52.220;5.134;2023-04-03T00:27:46;4.25;;;1.52;;
60372;SDS011;46216;52.220;5.134;2023-04-03T00:30:13;2.45;;;1.30;;
60372;SDS011;46216;52.220;5.134;2023-04-03T00:32:40;3.08;;;1.48;;
60372;SDS011;46216;52.220;5.134;2023-04-03T00:35:06;3.50;;;1.85;;
60372;SDS011;46216;52.220;5.134;2023-04-03T00:37:32;2.38;;;1.40;;
60372;SDS011;46216;52.220;5.134;2023-04-03T00:39:57;2.88;;;1.40;;
60372;SDS011;46216;52.220;5.134;2023-04-03T00:42:23;3.33;;;1.30;;
60372;SDS011;46216;52.220;5.134;2023-04-03T00:47:20;2.88;;;1.40;;
60372;SDS011;46216;52.220;5.134;2023-04-03T00:49:47;2.10;;;1.23;;
60372;SDS011;46216;52.220;5.134;2023-04-03T00:52:13;2.45;;;1.58;;
60372;SDS011;46216;52.220;5.134;2023-04-03T00:54:42;4.55;;;1.50;;
60372;SDS011;46216;52.220;5.134;2023-04-03T00:57:11;2.55;;;1.40;;
60372;SDS011;46216;52.220;5.134;2023-04-03T00:59:38;2.92;;;1.30;;
60372;SDS011;46216;52.220;5.134;2023-04-03T01:02:09;2.42;;;1.20;;
60372;SDS011;46216;52.220;5.134;2023-04-03T01:04:38;2.85;;;1.73;;
60372;SDS011;46216;52.220;5.134;2023-04-03T01:07:09;2.20;;;1.42;;
60372;SDS011;46216;52.220;5.134;2023-04-03T01:09:38;2.78;;;1.70;;
60372;SDS011;46216;52.220;5.134;2023-04-03T01:12:14;3.85;;;1.48;;
60372;SDS011;46216;52.220;5.134;2023-04-03T01:14:43;3.35;;;1.48;;
60372;SDS011;46216;52.220;5.134;2023-04-03T01:22:59;2.72;;;1.40;;
60372;SDS011;46216;52.220;5.134;2023-04-03T01:25:31;2.90;;;1.25;;
60372;SDS011;46216;52.220;5.134;2023-04-03T01:27:56;3.65;;;1.50;;
60372;SDS011;46216;52.220;5.134;2023-04-03T01:30:24;3.38;;;1.42;;
60372;SDS011;46216;52.220;5.134;2023-04-03T01:32:59;5.13;;;1.60;;
60372;SDS011;46216;52.220;5.134;2023-04-03T01:35:25;2.22;;;1.40;;
60372;SDS011;46216;52.220;5.134;2023-04-03T01:37:50;2.63;;;1.58;;
60372;SDS011;46216;52.220;5.134;2023-04-03T01:40:16;3.17;;;1.50;;
60372;SDS011;46216;52.220;5.134;2023-04-03T01:42:41;2.78;;;1.45;;
60372;SDS011;46216;52.220;5.134;2023-04-03T01:45:07;4.28;;;1.70;;
60372;SDS011;46216;52.220;5.134;2023-04-03T01:47:32;4.65;;;1.50;;
60372;SDS011;46216;52.220;5.134;2023-04-03T01:49:58;3.60;;;1.40;;
60372;SDS011;46216;52.220;5.134;2023-04-03T01:52:23;3.78;;;1.60;;
60372;SDS011;46216;52.220;5.134;2023-04-03T01:54:49;4.07;;;1.42;;
60372;SDS011;46216;52.220;5.134;2023-04-03T01:57:15;3.25;;;1.38;;
60372;SDS011;46216;52.220;5.134;2023-04-03T01:59:41;3.10;;;1.65;;
60372;SDS011;46216;52.220;5.134;2023-04-03T02:02:06;3.38;;;1.50;;
60372;SDS011;46216;52.220;5.134;2023-04-03T02:04:32;2.53;;;1.58;;
60372;SDS011;46216;52.220;5.134;2023-04-03T02:06:57;3.63;;;1.50;;
60372;SDS011;46216;52.220;5.134;2023-04-03T02:09:23;3.70;;;1.55;;
60372;SDS011;46216;52.220;5.134;2023-04-03T02:11:48;1.90;;;1.38;;
60372;SDS011;46216;52.220;5.134;2023-04-03T02:14:13;3.63;;;1.63;;
60372;SDS011;46216;52.220;5.134;2023-04-03T02:16:39;4.75;;;1.40;;
60372;SDS011;46216;52.220;5.134;2023-04-03T02:19:04;4.75;;;1.67;;
60372;SDS011;46216;52.220;5.134;2023-04-03T02:21:30;2.35;;;1.50;;
60372;SDS011;46216;52.220;5.134;2023-04-03T02:23:55;2.05;;;1.70;;
60372;SDS011;46216;52.220;5.134;2023-04-03T02:26:21;3.80;;;1.77;;
60372;SDS011;46216;52.220;5.134;2023-04-03T02:28:46;5.63;;;1.70;;
60372;SDS011;46216;52.220;5.134;2023-04-03T02:31:12;5.78;;;1.70;;
60372;SDS011;46216;52.220;5.134;2023-04-03T02:33:37;3.60;;;1.50;;
60372;SDS011;46216;52.220;5.134;2023-04-03T02:36:06;3.85;;;1.80;;
60372;SDS011;46216;52.220;5.134;2023-04-03T02:38:32;4.95;;;1.95;;
60372;SDS011;46216;52.220;5.134;2023-04-03T02:41:01;4.22;;;1.85;;
60372;SDS011;46216;52.220;5.134;2023-04-03T02:43:27;3.08;;;1.50;;
60372;SDS011;46216;52.220;5.134;2023-04-03T02:45:53;3.78;;;1.65;;
60372;SDS011;46216;52.220;5.134;2023-04-03T02:48:18;5.40;;;1.60;;
60372;SDS011;46216;52.220;5.134;2023-04-03T02:50:44;4.43;;;2.05;;
60372;SDS011;46216;52.220;5.134;2023-04-03T02:53:09;4.82;;;1.80;;
60372;SDS011;46216;52.220;5.134;2023-04-03T02:55:34;5.35;;;1.90;;
60372;SDS011;46216;52.220;5.134;2023-04-03T02:58:00;4.80;;;1.80;;
60372;SDS011;46216;52.220;5.134;2023-04-03T03:00:25;5.50;;;1.70;;
60372;SDS011;46216;52.220;5.134;2023-04-03T03:02:51;5.20;;;1.92;;
60372;SDS011;46216;52.220;5.134;2023-04-03T03:05:16;4.88;;;1.80;;
60372;SDS011;46216;52.220;5.134;2023-04-03T03:07:41;4.55;;;1.77;;
60372;SDS011;46216;52.220;5.134;2023-04-03T03:10:07;4.55;;;1.45;;
60372;SDS011;46216;52.220;5.134;2023-04-03T03:12:33;4.25;;;1.90;;
60372;SDS011;46216;52.220;5.134;2023-04-03T03:14:58;5.55;;;1.95;;
60372;SDS011;46216;52.220;5.134;2023-04-03T03:17:23;3.47;;;1.70;;
60372;SDS011;46216;52.220;5.134;2023-04-03T03:19:49;4.28;;;1.70;;
60372;SDS011;46216;52.220;5.134;2023-04-03T03:22:15;3.38;;;1.70;;
60372;SDS011;46216;52.220;5.134;2023-04-03T03:24:41;3.53;;;2.15;;
60372;SDS011;46216;52.220;5.134;2023-04-03T03:27:06;3.97;;;1.80;;
60372;SDS011;46216;52.220;5.134;2023-04-03T03:29:32;3.88;;;1.80;;
60372;SDS011;46216;52.220;5.134;2023-04-03T03:31:57;4.55;;;2.00;;
60372;SDS011;46216;52.220;5.134;2023-04-03T03:34:22;5.28;;;2.20;;
60372;SDS011;46216;52.220;5.134;2023-04-03T03:36:47;4.25;;;1.92;;
60372;SDS011;46216;52.220;5.134;2023-04-03T03:39:13;3.50;;;1.80;;
60372;SDS011;46216;52.220;5.134;2023-04-03T03:41:38;4.50;;;2.20;;
60372;SDS011;46216;52.220;5.134;2023-04-03T03:44:04;4.20;;;1.90;;
60372;SDS011;46216;52.220;5.134;2023-04-03T03:46:29;4.68;;;1.90;;
60372;SDS011;46216;52.220;5.134;2023-04-03T03:48:55;3.67;;;1.85;;
60372;SDS011;46216;52.220;5.134;2023-04-03T03:51:20;3.45;;;1.90;;
60372;SDS011;46216;52.220;5.134;2023-04-03T03:53:45;4.88;;;1.80;;
60372;SDS011;46216;52.220;5.134;2023-04-03T03:56:10;4.90;;;1.92;;
60372;SDS011;46216;52.220;5.134;2023-04-03T03:58:36;4.45;;;1.90;;
60372;SDS011;46216;52.220;5.134;2023-04-03T04:01:05;4.80;;;1.95;;
60372;SDS011;46216;52.220;5.134;2023-04-03T04:03:32;5.78;;;2.13;;
60372;SDS011;46216;52.220;5.134;2023-04-03T04:05:58;4.40;;;1.65;;
60372;SDS011;46216;52.220;5.134;2023-04-03T04:08:23;5.85;;;2.25;;
60372;SDS011;46216;52.220;5.134;2023-04-03T04:10:49;3.67;;;2.10;;
60372;SDS011;46216;52.220;5.134;2023-04-03T04:13:15;5.18;;;1.73;;
60372;SDS011;46216;52.220;5.134;2023-04-03T04:15:40;5.47;;;2.00;;
60372;SDS011;46216;52.220;5.134;2023-04-03T04:18:05;3.30;;;2.10;;
60372;SDS011;46216;52.220;5.134;2023-04-03T04:20:31;3.60;;;2.13;;
60372;SDS011;46216;52.220;5.134;2023-04-03T04:22:56;4.70;;;1.90;;
60372;SDS011;46216;52.220;5.134;2023-04-03T04:25:21;4.32;;;2.10;;
60372;SDS011;46216;52.220;5.134;2023-04-03T04:27:47;7.38;;;2.40;;
60372;SDS011;46216;52.220;5.134;2023-04-03T04:30:12;4.72;;;2.40;;
60372;SDS011;46216;52.220;5.134;2023-04-03T04:32:38;4.13;;;2.03;;
60372;SDS011;46216;52.220;5.134;2023-04-03T04:35:04;4.60;;;1.90;;
60372;SDS011;46216;52.220;5.134;2023-04-03T04:37:30;10.20;;;2.20;;
60372;SDS011;46216;52.220;5.134;2023-04-03T04:39:56;4.55;;;2.15;;
60372;SDS011;46216;52.220;5.134;2023-04-03T04:42:21;5.65;;;2.20;;
60372;SDS011;46216;52.220;5.134;2023-04-03T04:44:46;4.25;;;2.15;;
60372;SDS011;46216;52.220;5.134;2023-04-03T04:47:12;5.28;;;2.08;;
60372;SDS011;46216;52.220;5.134;2023-04-03T04:49:37;5.90;;;1.80;;
60372;SDS011;46216;52.220;5.134;2023-04-03T04:52:02;5.72;;;2.40;;
60372;SDS011;46216;52.220;5.134;2023-04-03T04:54:28;6.40;;;2.33;;
60372;SDS011;46216;52.220;5.134;2023-04-03T04:56:53;6.00;;;2.33;;
60372;SDS011;46216;52.220;5.134;2023-04-03T04:59:18;5.75;;;2.25;;
60372;SDS011;46216;52.220;5.134;2023-04-03T05:01:44;5.28;;;1.90;;
60372;SDS011;46216;52.220;5.134;2023-04-03T05:04:09;5.68;;;2.45;;
60372;SDS011;46216;52.220;5.134;2023-04-03T05:06:35;9.93;;;2.83;;
60372;SDS011;46216;52.220;5.134;2023-04-03T05:09:00;6.38;;;2.60;;
60372;SDS011;46216;52.220;5.134;2023-04-03T05:11:26;5.20;;;2.38;;
60372;SDS011;46216;52.220;5.134;2023-04-03T05:13:51;6.07;;;2.15;;
60372;SDS011;46216;52.220;5.134;2023-04-03T05:16:17;4.68;;;2.30;;
60372;SDS011;46216;52.220;5.134;2023-04-03T05:18:42;4.17;;;2.47;;
60372;SDS011;46216;52.220;5.134;2023-04-03T05:21:07;5.88;;;2.50;;
60372;SDS011;46216;52.220;5.134;2023-04-03T05:23:33;6.07;;;2.67;;
60372;SDS011;46216;52.220;5.134;2023-04-03T05:25:58;3.97;;;2.38;;
60372;SDS011;46216;52.220;5.134;2023-04-03T05:28:23;3.60;;;2.17;;
60372;SDS011;46216;52.220;5.134;2023-04-03T05:30:53;7.22;;;2.42;;
60372;SDS011;46216;52.220;5.134;2023-04-03T05:33:20;6.88;;;2.55;;
60372;SDS011;46216;52.220;5.134;2023-04-03T05:35:45;5.18;;;2.40;;
60372;SDS011;46216;52.220;5.134;2023-04-03T05:38:10;6.03;;;2.47;;
60372;SDS011;46216;52.220;5.134;2023-04-03T05:40:36;6.95;;;2.40;;
60372;SDS011;46216;52.220;5.134;2023-04-03T05:43:02;5.22;;;2.53;;
60372;SDS011;46216;52.220;5.134;2023-04-03T05:45:27;7.05;;;2.85;;
60372;SDS011;46216;52.220;5.134;2023-04-03T05:47:53;7.30;;;2.70;;
60372;SDS011;46216;52.220;5.134;2023-04-03T05:50:18;6.32;;;2.63;;
60372;SDS011;46216;52.220;5.134;2023-04-03T05:52:44;8.75;;;2.80;;
60372;SDS011;46216;52.220;5.134;2023-04-03T05:55:12;7.15;;;2.75;;
60372;SDS011;46216;52.220;5.134;2023-04-03T05:57:38;6.40;;;2.70;;
60372;SDS011;46216;52.220;5.134;2023-04-03T06:00:04;4.95;;;2.70;;
60372;SDS011;46216;52.220;5.134;2023-04-03T06:02:31;6.28;;;2.42;;
60372;SDS011;46216;52.220;5.134;2023-04-03T06:04:56;6.90;;;2.47;;
60372;SDS011;46216;52.220;5.134;2023-04-03T06:07:23;4.53;;;2.22;;
60372;SDS011;46216;52.220;5.134;2023-04-03T06:09:52;6.15;;;2.67;;
60372;SDS011;46216;52.220;5.134;2023-04-03T06:12:18;5.88;;;2.65;;
60372;SDS011;46216;52.220;5.134;2023-04-03T06:14:43;7.53;;;2.47;;
60372;SDS011;46216;52.220;5.134;2023-04-03T06:17:09;7.85;;;2.63;;
60372;SDS011;46216;52.220;5.134;2023-04-03T06:19:34;5.63;;;2.50;;
60372;SDS011;46216;52.220;5.134;2023-04-03T06:22:01;4.97;;;2.80;;
60372;SDS011;46216;52.220;5.134;2023-04-03T06:24:28;9.02;;;2.67;;
60372;SDS011;46216;52.220;5.134;2023-04-03T06:26:53;6.22;;;2.78;;
60372;SDS011;46216;52.220;5.134;2023-04-03T06:29:19;5.05;;;2.40;;
60372;SDS011;46216;52.220;5.134;2023-04-03T06:31:45;6.97;;;2.47;;
60372;SDS011;46216;52.220;5.134;2023-04-03T06:34:11;6.07;;;2.42;;
60372;SDS011;46216;52.220;5.134;2023-04-03T06:36:37;5.38;;;2.42;;
60372;SDS011;46216;52.220;5.134;2023-04-03T06:39:03;6.30;;;2.60;;
60372;SDS011;46216;52.220;5.134;2023-04-03T06:41:29;8.73;;;2.33;;
60372;SDS011;46216;52.220;5.134;2023-04-03T06:43:55;4.85;;;2.28;;
60372;SDS011;46216;52.220;5.134;2023-04-03T06:46:22;5.30;;;2.60;;
60372;SDS011;46216;52.220;5.134;2023-04-03T06:48:48;10.15;;;2.60;;
60372;SDS011;46216;52.220;5.134;2023-04-03T06:53:53;4.60;;;1.88;;
60372;SDS011;46216;52.220;5.134;2023-04-03T06:56:20;6.97;;;2.13;;
60372;SDS011;46216;52.220;5.134;2023-04-03T06:58:47;5.88;;;2.20;;
60372;SDS011;46216;52.220;5.134;2023-04-03T07:01:13;5.20;;;2.20;;
60372;SDS011;46216;52.220;5.134;2023-04-03T07:03:40;4.07;;;2.13;;
60372;SDS011;46216;52.220;5.134;2023-04-03T07:06:05;8.35;;;2.58;;
60372;SDS011;46216;52.220;5.134;2023-04-03T07:08:33;4.70;;;2.15;;
60372;SDS011;46216;52.220;5.134;2023-04-03T07:10:59;4.28;;;2.08;;
60372;SDS011;46216;52.220;5.134;2023-04-03T07:13:25;3.83;;;2.15;;
60372;SDS011;46216;52.220;5.134;2023-04-03T07:15:50;3.67;;;2.03;;
60372;SDS011;46216;52.220;5.134;2023-04-03T07:18:15;5.60;;;2.30;;
60372;SDS011;46216;52.220;5.134;2023-04-03T07:20:42;6.07;;;1.90;;
60372;SDS011;46216;52.220;5.134;2023-04-03T07:23:08;6.25;;;2.08;;
60372;SDS011;46216;52.220;5.134;2023-04-03T07:25:33;4.25;;;1.92;;
60372;SDS011;46216;52.220;5.134;2023-04-03T07:27:59;4.95;;;2.20;;
60372;SDS011;46216;52.220;5.134;2023-04-03T07:30:24;7.00;;;2.45;;
60372;SDS011;46216;52.220;5.134;2023-04-03T07:32:50;6.13;;;2.38;;
60372;SDS011;46216;52.220;5.134;2023-04-03T07:35:16;6.00;;;2.13;;
60372;SDS011;46216;52.220;5.134;2023-04-03T07:37:42;4.65;;;2.17;;
60372;SDS011;46216;52.220;5.134;2023-04-03T07:40:07;4.97;;;2.15;;
60372;SDS011;46216;52.220;5.134;2023-04-03T07:42:33;5.55;;;2.35;;
60372;SDS011;46216;52.220;5.134;2023-04-03T07:45:00;7.53;;;2.17;;
60372;SDS011;46216;52.220;5.134;2023-04-03T07:47:25;6.07;;;2.30;;
60372;SDS011;46216;52.220;5.134;2023-04-03T07:49:51;4.60;;;2.30;;
60372;SDS011;46216;52.220;5.134;2023-04-03T07:52:17;7.20;;;2.42;;
60372;SDS011;46216;52.220;5.134;2023-04-03T07:54:42;5.38;;;2.38;;
60372;SDS011;46216;52.220;5.134;2023-04-03T07:57:07;5.00;;;2.30;;
60372;SDS011;46216;52.220;5.134;2023-04-03T07:59:33;3.33;;;1.80;;
60372;SDS011;46216;52.220;5.134;2023-04-03T08:01:58;6.35;;;1.90;;
60372;SDS011;46216;52.220;5.134;2023-04-03T08:04:25;5.20;;;1.92;;
60372;SDS011;46216;52.220;5.134;2023-04-03T08:06:51;2.45;;;1.63;;
60372;SDS011;46216;52.220;5.134;2023-04-03T08:09:16;4.60;;;1.88;;
60372;SDS011;46216;52.220;5.134;2023-04-03T08:11:43;7.22;;;2.03;;
60372;SDS011;46216;52.220;5.134;2023-04-03T08:14:09;3.67;;;1.63;;
60372;SDS011;46216;52.220;5.134;2023-04-03T08:16:40;4.07;;;1.92;;
60372;SDS011;46216;52.220;5.134;2023-04-03T08:19:06;5.07;;;1.90;;
60372;SDS011;46216;52.220;5.134;2023-04-03T08:21:32;3.75;;;1.70;;
60372;SDS011;46216;52.220;5.134;2023-04-03T08:23:58;3.92;;;1.77;;
60372;SDS011;46216;52.220;5.134;2023-04-03T08:26:23;3.97;;;1.77;;
60372;SDS011;46216;52.220;5.134;2023-04-03T08:28:48;3.80;;;1.88;;
60372;SDS011;46216;52.220;5.134;2023-04-03T08:31:15;5.90;;;1.95;;
60372;SDS011;46216;52.220;5.134;2023-04-03T08:33:43;4.35;;;1.95;;
60372;SDS011;46216;52.220;5.134;2023-04-03T08:36:17;5.30;;;1.70;;
60372;SDS011;46216;52.220;5.134;2023-04-03T08:38:47;3.55;;;1.83;;
60372;SDS011;46216;52.220;5.134;2023-04-03T08:49:22;3.90;;;1.50;;
60372;SDS011;46216;52.220;5.134;2023-04-03T08:51:56;4.65;;;1.90;;
60372;SDS011;46216;52.220;5.134;2023-04-03T08:54:31;3.00;;;1.52;;
60372;SDS011;46216;52.220;5.134;2023-04-03T08:57:00;2.63;;;1.10;;
60372;SDS011;46216;52.220;5.134;2023-04-03T08:59:32;3.38;;;1.42;;
60372;SDS011;46216;52.220;5.134;2023-04-03T09:02:00;2.92;;;1.17;;
60372;SDS011;46216;52.220;5.134;2023-04-03T09:04:32;2.60;;;1.33;;
60372;SDS011;46216;52.220;5.134;2023-04-03T09:07:02;2.20;;;1.23;;
60372;SDS011;46216;52.220;5.134;2023-04-03T09:09:38;3.17;;;1.30;;
60372;SDS011;46216;52.220;5.134;2023-04-03T09:12:17;1.80;;;1.15;;
60372;SDS011;46216;52.220;5.134;2023-04-03T09:22:41;4.15;;;1.30;;
60372;SDS011;46216;52.220;5.134;2023-04-03T09:25:13;1.30;;;0.80;;
60372;SDS011;46216;52.220;5.134;2023-04-03T09:27:41;2.15;;;1.00;;
60372;SDS011;46216;52.220;5.134;2023-04-03T09:30:12;4.07;;;0.90;;
60372;SDS011;46216;52.220;5.134;2023-04-03T09:32:40;1.45;;;0.93;;
60372;SDS011;46216;52.220;5.134;2023-04-03T09:40:36;1.15;;;0.70;;
60372;SDS011;46216;52.220;5.134;2023-04-03T09:45:41;1.40;;;0.90;;
60372;SDS011;46216;52.220;5.134;2023-04-03T09:50:41;1.77;;;1.00;;
60372;SDS011;46216;52.220;5.134;2023-04-03T09:55:55;1.17;;;0.82;;
60372;SDS011;46216;52.220;5.134;2023-04-03T09:58:30;2.03;;;0.77;;
60372;SDS011;46216;52.220;5.134;2023-04-03T10:01:03;1.63;;;0.90;;
60372;SDS011;46216;52.220;5.134;2023-04-03T10:03:30;4.88;;;0.98;;
60372;SDS011;46216;52.220;5.134;2023-04-03T10:06:00;1.45;;;0.70;;
60372;SDS011;46216;52.220;5.134;2023-04-03T10:08:28;1.60;;;0.65;;
60372;SDS011;46216;52.220;5.134;2023-04-03T10:11:09;1.35;;;0.70;;
60372;SDS011;46216;52.220;5.134;2023-04-03T10:13:36;1.38;;;0.60;;
60372;SDS011;46216;52.220;5.134;2023-04-03T10:16:14;1.80;;;0.90;;
60372;SDS011;46216;52.220;5.134;2023-04-03T10:18:53;2.75;;;1.10;;
60372;SDS011;46216;52.220;5.134;2023-04-03T10:21:33;1.10;;;0.70;;
60372;SDS011;46216;52.220;5.134;2023-04-03T10:24:13;1.65;;;0.57;;
60372;SDS011;46216;52.220;5.134;2023-04-03T10:26:59;1.98;;;0.75;;
60372;SDS011;46216;52.220;5.134;2023-04-03T10:29:36;1.17;;;0.70;;
60372;SDS011;46216;52.220;5.134;2023-04-03T10:34:40;1.23;;;0.75;;
60372;SDS011;46216;52.220;5.134;2023-04-03T10:37:21;2.60;;;0.73;;
60372;SDS011;46216;52.220;5.134;2023-04-03T10:39:53;1.00;;;0.60;;
60372;SDS011;46216;52.220;5.134;2023-04-03T10:42:42;1.42;;;0.70;;
60372;SDS011;46216;52.220;5.134;2023-04-03T10:48:16;0.88;;;0.70;;
60372;SDS011;46216;52.220;5.134;2023-04-03T10:51:06;1.50;;;0.80;;
60372;SDS011;46216;52.220;5.134;2023-04-03T10:53:52;1.80;;;0.70;;
60372;SDS011;46216;52.220;5.134;2023-04-03T10:56:33;2.63;;;0.80;;
60372;SDS011;46216;52.220;5.134;2023-04-03T11:01:52;1.35;;;0.85;;
60372;SDS011;46216;52.220;5.134;2023-04-03T11:04:21;1.17;;;0.77;;
60372;SDS011;46216;52.220;5.134;2023-04-03T11:06:53;2.00;;;0.82;;
60372;SDS011;46216;52.220;5.134;2023-04-03T11:09:26;1.92;;;0.70;;
60372;SDS011;46216;52.220;5.134;2023-04-03T11:12:00;3.47;;;0.93;;
60372;SDS011;46216;52.220;5.134;2023-04-03T11:14:34;1.92;;;0.90;;
60372;SDS011;46216;52.220;5.134;2023-04-03T11:17:09;1.15;;;0.63;;
60372;SDS011;46216;52.220;5.134;2023-04-03T11:19:44;0.88;;;0.52;;
60372;SDS011;46216;52.220;5.134;2023-04-03T11:24:55;6.50;;;1.05;;
60372;SDS011;46216;52.220;5.134;2023-04-03T11:27:27;0.93;;;0.63;;
60372;SDS011;46216;52.220;5.134;2023-04-03T11:30:11;1.90;;;0.90;;
60372;SDS011;46216;52.220;5.134;2023-04-03T11:35:29;1.58;;;0.60;;
60372;SDS011;46216;52.220;5.134;2023-04-03T11:37:55;2.03;;;0.70;;
60372;SDS011;46216;52.220;5.134;2023-04-03T11:40:24;0.70;;;0.70;;
60372;SDS011;46216;52.220;5.134;2023-04-03T11:42:53;3.10;;;0.80;;
60372;SDS011;46216;52.220;5.134;2023-04-03T11:45:31;0.80;;;0.70;;
60372;SDS011;46216;52.220;5.134;2023-04-03T11:50:45;3.42;;;0.90;;
60372;SDS011;46216;52.220;5.134;2023-04-03T12:16:04;1.88;;;0.80;;
60372;SDS011;46216;52.220;5.134;2023-04-03T12:18:44;2.47;;;0.90;;
60372;SDS011;46216;52.220;5.134;2023-04-03T12:21:13;1.38;;;0.70;;
60372;SDS011;46216;52.220;5.134;2023-04-03T12:26:22;1.20;;;0.82;;
60372;SDS011;46216;52.220;5.134;2023-04-03T12:28:51;2.58;;;1.15;;
60372;SDS011;46216;52.220;5.134;2023-04-03T12:31:19;1.75;;;0.82;;
60372;SDS011;46216;52.220;5.134;2023-04-03T12:34:01;1.60;;;0.80;;
60372;SDS011;46216;52.220;5.134;2023-04-03T12:36:51;1.23;;;0.80;;
60372;SDS011;46216;52.220;5.134;2023-04-03T12:45:08;2.10;;;0.93;;
60372;SDS011;46216;52.220;5.134;2023-04-03T12:47:42;3.00;;;0.95;;
60372;SDS011;46216;52.220;5.134;2023-04-03T12:53:05;3.53;;;0.80;;
60372;SDS011;46216;52.220;5.134;2023-04-03T12:55:36;2.00;;;0.90;;
60372;SDS011;46216;52.220;5.134;2023-04-03T12:58:22;0.98;;;0.80;;
60372;SDS011;46216;52.220;5.134;2023-04-03T13:00:58;1.55;;;1.10;;
60372;SDS011;46216;52.220;5.134;2023-04-03T13:03:25;1.42;;;0.82;;
60372;SDS011;46216;52.220;5.134;2023-04-03T13:05:53;2.58;;;1.13;;
60372;SDS011;46216;52.220;5.134;2023-04-03T13:08:21;1.40;;;0.80;;
60372;SDS011;46216;52.220;5.134;2023-04-03T13:10:52;1.88;;;1.00;;
60372;SDS011;46216;52.220;5.134;2023-04-03T13:13:21;2.08;;;0.98;;
60372;SDS011;46216;52.220;5.134;2023-04-03T13:15:48;1.67;;;1.00;;
60372;SDS011;46216;52.220;5.134;2023-04-03T13:18:34;2.00;;;1.00;;
60372;SDS011;46216;52.220;5.134;2023-04-03T13:21:07;1.50;;;0.80;;
60372;SDS011;46216;52.220;5.134;2023-04-03T13:23:38;1.48;;;0.93;;
60372;SDS011;46216;52.220;5.134;2023-04-03T13:26:07;1.13;;;0.80;;
60372;SDS011;46216;52.220;5.134;2023-04-03T13:28:34;1.88;;;0.90;;
60372;SDS011;46216;52.220;5.134;2023-04-03T13:31:02;2.33;;;1.13;;
60372;SDS011;46216;52.220;5.134;2023-04-03T13:33:31;1.50;;;0.90;;
60372;SDS011;46216;52.220;5.134;2023-04-03T13:36:23;1.35;;;0.98;;
60372;SDS011;46216;52.220;5.134;2023-04-03T13:41:44;1.55;;;1.00;;
60372;SDS011;46216;52.220;5.134;2023-04-03T13:46:45;2.92;;;1.00;;
60372;SDS011;46216;52.220;5.134;2023-04-03T13:49:19;1.67;;;1.05;;
60372;SDS011;46216;52.220;5.134;2023-04-03T13:52:23;2.28;;;1.00;;
60372;SDS011;46216;52.220;5.134;2023-04-03T13:55:00;1.48;;;1.00;;
60372;SDS011;46216;52.220;5.134;2023-04-03T13:57:36;1.77;;;1.00;;
60372;SDS011;46216;52.220;5.134;2023-04-03T14:00:18;3.22;;;1.45;;
60372;SDS011;46216;52.220;5.134;2023-04-03T14:02:46;2.75;;;0.93;;
60372;SDS011;46216;52.220;5.134;2023-04-03T14:05:13;1.67;;;0.95;;
60372;SDS011;46216;52.220;5.134;2023-04-03T14:07:38;1.42;;;1.00;;
60372;SDS011;46216;52.220;5.134;2023-04-03T14:10:03;3.33;;;1.20;;
60372;SDS011;46216;52.220;5.134;2023-04-03T14:12:34;2.72;;;1.00;;
60372;SDS011;46216;52.220;5.134;2023-04-03T14:15:03;2.70;;;1.10;;
60372;SDS011;46216;52.220;5.134;2023-04-03T14:17:35;1.95;;;1.20;;
60372;SDS011;46216;52.220;5.134;2023-04-03T14:20:02;2.03;;;1.00;;
60372;SDS011;46216;52.220;5.134;2023-04-03T14:22:31;2.63;;;1.10;;
60372;SDS011;46216;52.220;5.134;2023-04-03T14:24:59;4.78;;;1.10;;
60372;SDS011;46216;52.220;5.134;2023-04-03T14:27:29;2.63;;;1.10;;
60372;SDS011;46216;52.220;5.134;2023-04-03T14:30:03;2.70;;;1.27;;
60372;SDS011;46216;52.220;5.134;2023-04-03T14:32:31;2.10;;;1.02;;
60372;SDS011;46216;52.220;5.134;2023-04-03T14:34:57;1.58;;;1.10;;
60372;SDS011;46216;52.220;5.134;2023-04-03T14:37:24;2.65;;;1.15;;
60372;SDS011;46216;52.220;5.134;2023-04-03T14:39:53;2.60;;;1.10;;
60372;SDS011;46216;52.220;5.134;2023-04-03T14:42:20;1.40;;;1.00;;
60372;SDS011;46216;52.220;5.134;2023-04-03T14:45:06;1.73;;;1.00;;
60372;SDS011;46216;52.220;5.134;2023-04-03T14:47:33;2.58;;;1.23;;
60372;SDS011;46216;52.220;5.134;2023-04-03T14:50:06;3.05;;;1.30;;
60372;SDS011;46216;52.220;5.134;2023-04-03T14:52:34;1.70;;;1.05;;
60372;SDS011;46216;52.220;5.134;2023-04-03T14:55:01;1.75;;;1.23;;
60372;SDS011;46216;52.220;5.134;2023-04-03T14:57:28;2.90;;;1.20;;
60372;SDS011;46216;52.220;5.134;2023-04-03T14:59:54;2.97;;;1.23;;
60372;SDS011;46216;52.220;5.134;2023-04-03T15:05:03;2.05;;;1.17;;
60372;SDS011;46216;52.220;5.134;2023-04-03T15:07:41;2.67;;;1.50;;
60372;SDS011;46216;52.220;5.134;2023-04-03T15:10:14;2.50;;;1.20;;
60372;SDS011;46216;52.220;5.134;2023-04-03T15:12:46;3.25;;;1.30;;
60372;SDS011;46216;52.220;5.134;2023-04-03T15:15:13;2.38;;;1.30;;
60372;SDS011;46216;52.220;5.134;2023-04-03T15:17:39;2.47;;;1.40;;
60372;SDS011;46216;52.220;5.134;2023-04-03T15:20:10;1.75;;;1.10;;
60372;SDS011;46216;52.220;5.134;2023-04-03T15:22:38;2.83;;;1.10;;
60372;SDS011;46216;52.220;5.134;2023-04-03T15:25:04;2.83;;;1.30;;
60372;SDS011;46216;52.220;5.134;2023-04-03T15:27:29;3.72;;;1.30;;
60372;SDS011;46216;52.220;5.134;2023-04-03T15:29:55;2.08;;;1.20;;
60372;SDS011;46216;52.220;5.134;2023-04-03T15:32:20;2.25;;;1.20;;
60372;SDS011;46216;52.220;5.134;2023-04-03T15:34:46;2.10;;;1.15;;
60372;SDS011;46216;52.220;5.134;2023-04-03T15:37:11;2.45;;;1.05;;
60372;SDS011;46216;52.220;5.134;2023-04-03T15:39:36;1.95;;;1.10;;
60372;SDS011;46216;52.220;5.134;2023-04-03T15:42:02;2.90;;;1.60;;
60372;SDS011;46216;52.220;5.134;2023-04-03T15:44:31;3.33;;;1.60;;
60372;SDS011;46216;52.220;5.134;2023-04-03T15:46:58;2.03;;;1.30;;
60372;SDS011;46216;52.220;5.134;2023-04-03T15:49:25;3.03;;;1.30;;
60372;SDS011;46216;52.220;5.134;2023-04-03T15:51:51;2.40;;;1.30;;
60372;SDS011;46216;52.220;5.134;2023-04-03T15:54:16;2.78;;;1.30;;
60372;SDS011;46216;52.220;5.134;2023-04-03T15:56:42;3.63;;;1.23;;
60372;SDS011;46216;52.220;5.134;2023-04-03T15:59:07;3.83;;;1.50;;
60372;SDS011;46216;52.220;5.134;2023-04-03T16:01:32;3.05;;;1.40;;
60372;SDS011;46216;52.220;5.134;2023-04-03T16:03:58;3.35;;;1.30;;
60372;SDS011;46216;52.220;5.134;2023-04-03T16:06:24;3.15;;;1.48;;
60372;SDS011;46216;52.220;5.134;2023-04-03T16:08:51;3.17;;;1.50;;
60372;SDS011;46216;52.220;5.134;2023-04-03T16:11:16;3.47;;;1.30;;
60372;SDS011;46216;52.220;5.134;2023-04-03T16:13:42;3.38;;;1.27;;
60372;SDS011;46216;52.220;5.134;2023-04-03T16:16:08;1.88;;;1.25;;
60372;SDS011;46216;52.220;5.134;2023-04-03T16:18:34;3.97;;;1.30;;
60372;SDS011;46216;52.220;5.134;2023-04-03T16:21:00;1.88;;;1.23;;
60372;SDS011;46216;52.220;5.134;2023-04-03T16:23:26;1.65;;;1.10;;
60372;SDS011;46216;52.220;5.134;2023-04-03T16:25:51;2.55;;;1.35;;
60372;SDS011;46216;52.220;5.134;2023-04-03T16:28:17;2.45;;;1.30;;
60372;SDS011;46216;52.220;5.134;2023-04-03T16:30:43;3.55;;;1.60;;
60372;SDS011;46216;52.220;5.134;2023-04-03T16:33:09;2.60;;;1.10;;